Aviation Digital Data Service (ADDS)

Output produced by METARs form (0530 UTC 19 March 2019)
found at http://www.aviationweather.gov/metar/data/
 
METAR text: UUWW 190500Z 16004MPS 8000 SCT029 03/M00 Q1016 R24/290050 NOSIG
Conditions at: UUWW (MOSCOW/VNUKOVO , RU) observed 0500 UTC 19 March 2019
Temperature: 3.0°C (37°F)
Dewpoint: 0.0°C (32°F) [RH = 81%]
Pressure (altimeter): 30.00 inches Hg (1016.0 mb)
Winds: from the SSE (160 degrees) at 9 MPH (8 knots; 4.1 m/s)
Visibility: 5 miles ( 8 km)
Ceiling: at least 12,000 feet AGL
Clouds: scattered clouds at 2900 feet AGL
Weather: no significant weather observed at this time

METAR text: UUWW 190430Z 15004MPS 8000 NSC 03/M00 Q1016 R24/290050 NOSIG
Conditions at: UUWW (MOSCOW/VNUKOVO , RU) observed 0430 UTC 19 March 2019
Temperature: 3.0°C (37°F)
Dewpoint: 0.0°C (32°F) [RH = 81%]
Pressure (altimeter): 30.00 inches Hg (1016.0 mb)
Winds: from the SSE (150 degrees) at 9 MPH (8 knots; 4.1 m/s)
Visibility: 5 miles ( 8 km)
Ceiling: at least 12,000 feet AGL
Clouds: sky clear below 12,000 feet AGL
Weather: no significant weather observed at this time

METAR text: UUWW 190400Z 16004MPS 8000 BKN040 02/M00 Q1016 R24/290050 NOSIG
Conditions at: UUWW (MOSCOW/VNUKOVO , RU) observed 0400 UTC 19 March 2019
Temperature: 2.0°C (36°F)
Dewpoint: 0.0°C (32°F) [RH = 87%]
Pressure (altimeter): 30.00 inches Hg (1016.0 mb)
Winds: from the SSE (160 degrees) at 9 MPH (8 knots; 4.1 m/s)
Visibility: 5 miles ( 8 km)
Ceiling: 4000 feet AGL
Clouds: broken clouds at 4000 feet AGL
Weather: no significant weather observed at this time

METAR text: UUWW 190330Z 16004MPS 7000 SCT013 BKN033 02/M00 Q1016 R24/290050 NOSIG
Conditions at: UUWW (MOSCOW/VNUKOVO , RU) observed 0330 UTC 19 March 2019
Temperature: 2.0°C (36°F)
Dewpoint: 0.0°C (32°F) [RH = 87%]
Pressure (altimeter): 30.00 inches Hg (1016.0 mb)
Winds: from the SSE (160 degrees) at 9 MPH (8 knots; 4.1 m/s)
Visibility: 4 miles ( 7 km)
Ceiling: 3300 feet AGL
Clouds: scattered clouds at 1300 feet AGL
broken clouds at 3300 feet AGL
Weather: no significant weather observed at this time

METAR text: UUWW 190300Z 16004MPS 7000 SCT012 02/M00 Q1016 R24/190050 NOSIG
Conditions at: UUWW (MOSCOW/VNUKOVO , RU) observed 0300 UTC 19 March 2019
Temperature: 2.0°C (36°F)
Dewpoint: 0.0°C (32°F) [RH = 87%]
Pressure (altimeter): 30.00 inches Hg (1016.0 mb)
Winds: from the SSE (160 degrees) at 9 MPH (8 knots; 4.1 m/s)
Visibility: 4 miles ( 7 km)
Ceiling: at least 12,000 feet AGL
Clouds: scattered clouds at 1200 feet AGL
Weather: no significant weather observed at this time

METAR text: UUWW 190230Z 16005MPS 7000 SCT009 BKN040 02/M00 Q1016 R24/190050 NOSIG
Conditions at: UUWW (MOSCOW/VNUKOVO , RU) observed 0230 UTC 19 March 2019
Temperature: 2.0°C (36°F)
Dewpoint: 0.0°C (32°F) [RH = 87%]
Pressure (altimeter): 30.00 inches Hg (1016.0 mb)
Winds: from the SSE (160 degrees) at 12 MPH (10 knots; 5.1 m/s)
Visibility: 4 miles ( 7 km)
Ceiling: 4000 feet AGL
Clouds: scattered clouds at 900 feet AGL
broken clouds at 4000 feet AGL
Weather: no significant weather observed at this time

METAR text: UUWW 190200Z 15005MPS 8000 SCT009 BKN040 02/M00 Q1016 R24/190050 NOSIG
Conditions at: UUWW (MOSCOW/VNUKOVO , RU) observed 0200 UTC 19 March 2019
Temperature: 2.0°C (36°F)
Dewpoint: 0.0°C (32°F) [RH = 87%]
Pressure (altimeter): 30.00 inches Hg (1016.0 mb)
Winds: from the SSE (150 degrees) at 12 MPH (10 knots; 5.1 m/s)
Visibility: 5 miles ( 8 km)
Ceiling: 4000 feet AGL
Clouds: scattered clouds at 900 feet AGL
broken clouds at 4000 feet AGL
Weather: no significant weather observed at this time

METAR text: UUWW 190130Z 15005MPS 8000 BKN009 OVC037 02/M00 Q1017 R24/190050 NOSIG
Conditions at: UUWW (MOSCOW/VNUKOVO , RU) observed 0130 UTC 19 March 2019
Temperature: 2.0°C (36°F)
Dewpoint: 0.0°C (32°F) [RH = 87%]
Pressure (altimeter): 30.03 inches Hg (1017.0 mb)
Winds: from the SSE (150 degrees) at 12 MPH (10 knots; 5.1 m/s)
Visibility: 5 miles ( 8 km)
Ceiling: 900 feet AGL
Clouds: broken clouds at 900 feet AGL
overcast cloud deck at 3700 feet AGL
Weather: no significant weather observed at this time

METAR text: UUWW 190100Z 15006G11MPS 8000 BKN009 OVC043 02/M00 Q1017 R24/190050 NOSIG
Conditions at: UUWW (MOSCOW/VNUKOVO , RU) observed 0100 UTC 19 March 2019
Temperature: 2.0°C (36°F)
Dewpoint: 0.0°C (32°F) [RH = 87%]
Pressure (altimeter): 30.03 inches Hg (1017.0 mb)
Winds: from the SSE (150 degrees) at 14 MPH (12 knots; 6.2 m/s)
gusting to 24 MPH (21 knots; 10.8 m/s)
Visibility: 5 miles ( 8 km)
Ceiling: 900 feet AGL
Clouds: broken clouds at 900 feet AGL
overcast cloud deck at 4300 feet AGL
Weather: no significant weather observed at this time

METAR text: UUWW 190030Z 15004MPS 8000 BKN010 OVC043 02/M00 Q1017 R24/190050 NOSIG
Conditions at: UUWW (MOSCOW/VNUKOVO , RU) observed 0030 UTC 19 March 2019
Temperature: 2.0°C (36°F)
Dewpoint: 0.0°C (32°F) [RH = 87%]
Pressure (altimeter): 30.03 inches Hg (1017.0 mb)
Winds: from the SSE (150 degrees) at 9 MPH (8 knots; 4.1 m/s)
Visibility: 5 miles ( 8 km)
Ceiling: 1000 feet AGL
Clouds: broken clouds at 1000 feet AGL
overcast cloud deck at 4300 feet AGL
Weather: no significant weather observed at this time

METAR text: UUWW 190000Z 15004MPS 8000 BKN010 OVC043 02/M00 Q1017 R24/190050 NOSIG
Conditions at: UUWW (MOSCOW/VNUKOVO , RU) observed 0000 UTC 19 March 2019
Temperature: 2.0°C (36°F)
Dewpoint: 0.0°C (32°F) [RH = 87%]
Pressure (altimeter): 30.03 inches Hg (1017.0 mb)
Winds: from the SSE (150 degrees) at 9 MPH (8 knots; 4.1 m/s)
Visibility: 5 miles ( 8 km)
Ceiling: 1000 feet AGL
Clouds: broken clouds at 1000 feet AGL
overcast cloud deck at 4300 feet AGL
Weather: no significant weather observed at this time

METAR text: UUWW 182330Z 14004MPS 8000 SCT011 OVC043 02/M00 Q1017 R24/190050 NOSIG
Conditions at: UUWW (MOSCOW/VNUKOVO , RU) observed 2330 UTC 18 March 2019
Temperature: 2.0°C (36°F)
Dewpoint: 0.0°C (32°F) [RH = 87%]
Pressure (altimeter): 30.03 inches Hg (1017.0 mb)
Winds: from the SE (140 degrees) at 9 MPH (8 knots; 4.1 m/s)
Visibility: 5 miles ( 8 km)
Ceiling: 4300 feet AGL
Clouds: scattered clouds at 1100 feet AGL
overcast cloud deck at 4300 feet AGL
Weather: no significant weather observed at this time

METAR text: UUWW 182300Z 14004MPS 9000 BKN010 OVC046 02/M00 Q1018 WS R24 R24/190050 NOSIG
Conditions at: UUWW (MOSCOW/VNUKOVO , RU) observed 2300 UTC 18 March 2019
Temperature: 2.0°C (36°F)
Dewpoint: 0.0°C (32°F) [RH = 87%]
Pressure (altimeter): 30.06 inches Hg (1018.0 mb)
Winds: from the SE (140 degrees) at 9 MPH (8 knots; 4.1 m/s)
Visibility: 6 miles ( 9 km)
Ceiling: 1000 feet AGL
Clouds: broken clouds at 1000 feet AGL
overcast cloud deck at 4600 feet AGL
Weather: no significant weather observed at this time

METAR text: UUWW 182230Z 15004MPS 9000 OVC010 02/M00 Q1018 WS R24 R24/190050 NOSIG
Conditions at: UUWW (MOSCOW/VNUKOVO , RU) observed 2230 UTC 18 March 2019
Temperature: 2.0°C (36°F)
Dewpoint: 0.0°C (32°F) [RH = 87%]
Pressure (altimeter): 30.06 inches Hg (1018.0 mb)
Winds: from the SSE (150 degrees) at 9 MPH (8 knots; 4.1 m/s)
Visibility: 6 miles ( 9 km)
Ceiling: 1000 feet AGL
Clouds: overcast cloud deck at 1000 feet AGL
Weather: no significant weather observed at this time

METAR text: UUWW 182200Z 15004MPS 9999 OVC010 02/M01 Q1018 R24/190050 NOSIG
Conditions at: UUWW (MOSCOW/VNUKOVO , RU) observed 2200 UTC 18 March 2019
Temperature: 2.0°C (36°F)
Dewpoint: -1.0°C (30°F) [RH = 80%]
Pressure (altimeter): 30.06 inches Hg (1018.0 mb)
Winds: from the SSE (150 degrees) at 9 MPH (8 knots; 4.1 m/s)
Visibility: 6 or more miles (10+ km)
Ceiling: 1000 feet AGL
Clouds: overcast cloud deck at 1000 feet AGL
Weather: no significant weather observed at this time

METAR text: UUWW 182130Z 15004MPS 9999 OVC010 02/M01 Q1018 R24/190050 NOSIG
Conditions at: UUWW (MOSCOW/VNUKOVO , RU) observed 2130 UTC 18 March 2019
Temperature: 2.0°C (36°F)
Dewpoint: -1.0°C (30°F) [RH = 80%]
Pressure (altimeter): 30.06 inches Hg (1018.0 mb)
Winds: from the SSE (150 degrees) at 9 MPH (8 knots; 4.1 m/s)
Visibility: 6 or more miles (10+ km)
Ceiling: 1000 feet AGL
Clouds: overcast cloud deck at 1000 feet AGL
Weather: no significant weather observed at this time

METAR text: UUWW 182100Z 16005MPS 9999 OVC011 02/M01 Q1018 R24/190050 NOSIG
Conditions at: UUWW (MOSCOW/VNUKOVO , RU) observed 2100 UTC 18 March 2019
Temperature: 2.0°C (36°F)
Dewpoint: -1.0°C (30°F) [RH = 80%]
Pressure (altimeter): 30.06 inches Hg (1018.0 mb)
Winds: from the SSE (160 degrees) at 12 MPH (10 knots; 5.1 m/s)
Visibility: 6 or more miles (10+ km)
Ceiling: 1100 feet AGL
Clouds: overcast cloud deck at 1100 feet AGL
Weather: no significant weather observed at this time

METAR text: UUWW 182030Z 16004MPS 9999 OVC011 02/M01 Q1018 R24/190050 NOSIG
Conditions at: UUWW (MOSCOW/VNUKOVO , RU) observed 2030 UTC 18 March 2019
Temperature: 2.0°C (36°F)
Dewpoint: -1.0°C (30°F) [RH = 80%]
Pressure (altimeter): 30.06 inches Hg (1018.0 mb)
Winds: from the SSE (160 degrees) at 9 MPH (8 knots; 4.1 m/s)
Visibility: 6 or more miles (10+ km)
Ceiling: 1100 feet AGL
Clouds: overcast cloud deck at 1100 feet AGL
Weather: no significant weather observed at this time

METAR text: UUWW 182000Z 17005MPS 9999 OVC012 02/M01 Q1018 R24/190050 NOSIG
Conditions at: UUWW (MOSCOW/VNUKOVO , RU) observed 2000 UTC 18 March 2019
Temperature: 2.0°C (36°F)
Dewpoint: -1.0°C (30°F) [RH = 80%]
Pressure (altimeter): 30.06 inches Hg (1018.0 mb)
Winds: from the S (170 degrees) at 12 MPH (10 knots; 5.1 m/s)
Visibility: 6 or more miles (10+ km)
Ceiling: 1200 feet AGL
Clouds: overcast cloud deck at 1200 feet AGL
Weather: no significant weather observed at this time

METAR text: UUWW 181930Z 17004MPS 9999 OVC012 02/M01 Q1018 R24/190050 NOSIG
Conditions at: UUWW (MOSCOW/VNUKOVO , RU) observed 1930 UTC 18 March 2019
Temperature: 2.0°C (36°F)
Dewpoint: -1.0°C (30°F) [RH = 80%]
Pressure (altimeter): 30.06 inches Hg (1018.0 mb)
Winds: from the S (170 degrees) at 9 MPH (8 knots; 4.1 m/s)
Visibility: 6 or more miles (10+ km)
Ceiling: 1200 feet AGL
Clouds: overcast cloud deck at 1200 feet AGL
Weather: no significant weather observed at this time

METAR text: UUWW 181900Z 17006G11MPS 9999 OVC013 02/M02 Q1018 R24/190050 NOSIG
Conditions at: UUWW (MOSCOW/VNUKOVO , RU) observed 1900 UTC 18 March 2019
Temperature: 2.0°C (36°F)
Dewpoint: -2.0°C (28°F) [RH = 75%]
Pressure (altimeter): 30.06 inches Hg (1018.0 mb)
Winds: from the S (170 degrees) at 14 MPH (12 knots; 6.2 m/s)
gusting to 24 MPH (21 knots; 10.8 m/s)
Visibility: 6 or more miles (10+ km)
Ceiling: 1300 feet AGL
Clouds: overcast cloud deck at 1300 feet AGL
Weather: no significant weather observed at this time

METAR text: UUWW 181830Z 17006MPS 9999 OVC013 02/M02 Q1018 R24/190050 NOSIG
Conditions at: UUWW (MOSCOW/VNUKOVO , RU) observed 1830 UTC 18 March 2019
Temperature: 2.0°C (36°F)
Dewpoint: -2.0°C (28°F) [RH = 75%]
Pressure (altimeter): 30.06 inches Hg (1018.0 mb)
Winds: from the S (170 degrees) at 14 MPH (12 knots; 6.2 m/s)
Visibility: 6 or more miles (10+ km)
Ceiling: 1300 feet AGL
Clouds: overcast cloud deck at 1300 feet AGL
Weather: no significant weather observed at this time

METAR text: UUWW 181800Z 17006MPS 9999 OVC013 02/M02 Q1018 R24/190050 NOSIG
Conditions at: UUWW (MOSCOW/VNUKOVO , RU) observed 1800 UTC 18 March 2019
Temperature: 2.0°C (36°F)
Dewpoint: -2.0°C (28°F) [RH = 75%]
Pressure (altimeter): 30.06 inches Hg (1018.0 mb)
Winds: from the S (170 degrees) at 14 MPH (12 knots; 6.2 m/s)
Visibility: 6 or more miles (10+ km)
Ceiling: 1300 feet AGL
Clouds: overcast cloud deck at 1300 feet AGL
Weather: no significant weather observed at this time

METAR text: UUWW 181730Z 16005MPS 9999 BKN013 02/M02 Q1018 R24/190050 NOSIG
Conditions at: UUWW (MOSCOW/VNUKOVO , RU) observed 1730 UTC 18 March 2019
Temperature: 2.0°C (36°F)
Dewpoint: -2.0°C (28°F) [RH = 75%]
Pressure (altimeter): 30.06 inches Hg (1018.0 mb)
Winds: from the SSE (160 degrees) at 12 MPH (10 knots; 5.1 m/s)
Visibility: 6 or more miles (10+ km)
Ceiling: 1300 feet AGL
Clouds: broken clouds at 1300 feet AGL
Weather: no significant weather observed at this time

METAR text: UUWW 181700Z 16004MPS 9999 BKN013 02/M02 Q1017 R24/190050 NOSIG
Conditions at: UUWW (MOSCOW/VNUKOVO , RU) observed 1700 UTC 18 March 2019
Temperature: 2.0°C (36°F)
Dewpoint: -2.0°C (28°F) [RH = 75%]
Pressure (altimeter): 30.03 inches Hg (1017.0 mb)
Winds: from the SSE (160 degrees) at 9 MPH (8 knots; 4.1 m/s)
Visibility: 6 or more miles (10+ km)
Ceiling: 1300 feet AGL
Clouds: broken clouds at 1300 feet AGL
Weather: no significant weather observed at this time

METAR text: UUWW 181630Z 16005MPS 9999 SCT014 02/M02 Q1017 R24/190050 NOSIG
Conditions at: UUWW (MOSCOW/VNUKOVO , RU) observed 1630 UTC 18 March 2019
Temperature: 2.0°C (36°F)
Dewpoint: -2.0°C (28°F) [RH = 75%]
Pressure (altimeter): 30.03 inches Hg (1017.0 mb)
Winds: from the SSE (160 degrees) at 12 MPH (10 knots; 5.1 m/s)
Visibility: 6 or more miles (10+ km)
Ceiling: at least 12,000 feet AGL
Clouds: scattered clouds at 1400 feet AGL
Weather: no significant weather observed at this time

METAR text: UUWW 181600Z 15006MPS CAVOK 02/M02 Q1017 R24/190050 NOSIG
Conditions at: UUWW (MOSCOW/VNUKOVO , RU) observed 1600 UTC 18 March 2019
Temperature: 2.0°C (36°F)
Dewpoint: -2.0°C (28°F) [RH = 75%]
Pressure (altimeter): 30.03 inches Hg (1017.0 mb)
Winds: from the SSE (150 degrees) at 14 MPH (12 knots; 6.2 m/s)
Visibility: 6 or more miles (10+ km)
Ceiling: ceiling and visibility are OK
Clouds: unknown
Weather: no significant weather observed at this time

METAR text: UUWW 181530Z 15004MPS CAVOK 04/M02 Q1017 R24/190050 NOSIG
Conditions at: UUWW (MOSCOW/VNUKOVO , RU) observed 1530 UTC 18 March 2019
Temperature: 4.0°C (39°F)
Dewpoint: -2.0°C (28°F) [RH = 65%]
Pressure (altimeter): 30.03 inches Hg (1017.0 mb)
Winds: from the SSE (150 degrees) at 9 MPH (8 knots; 4.1 m/s)
Visibility: 6 or more miles (10+ km)
Ceiling: ceiling and visibility are OK
Clouds: unknown
Weather: no significant weather observed at this time

METAR text: UUWW 181500Z 16004MPS CAVOK 04/M01 Q1017 R24/190050 NOSIG
Conditions at: UUWW (MOSCOW/VNUKOVO , RU) observed 1500 UTC 18 March 2019
Temperature: 4.0°C (39°F)
Dewpoint: -1.0°C (30°F) [RH = 70%]
Pressure (altimeter): 30.03 inches Hg (1017.0 mb)
Winds: from the SSE (160 degrees) at 9 MPH (8 knots; 4.1 m/s)
Visibility: 6 or more miles (10+ km)
Ceiling: ceiling and visibility are OK
Clouds: unknown
Weather: no significant weather observed at this time

METAR text: UUWW 181430Z 16005MPS CAVOK 05/M01 Q1017 R24/190050 NOSIG
Conditions at: UUWW (MOSCOW/VNUKOVO , RU) observed 1430 UTC 18 March 2019
Temperature: 5.0°C (41°F)
Dewpoint: -1.0°C (30°F) [RH = 65%]
Pressure (altimeter): 30.03 inches Hg (1017.0 mb)
Winds: from the SSE (160 degrees) at 12 MPH (10 knots; 5.1 m/s)
Visibility: 6 or more miles (10+ km)
Ceiling: ceiling and visibility are OK
Clouds: unknown
Weather: no significant weather observed at this time

METAR text: UUWW 181400Z 15008MPS CAVOK 05/M01 Q1017 R19/190045 R24/190050 NOSIG
Conditions at: UUWW (MOSCOW/VNUKOVO , RU) observed 1400 UTC 18 March 2019
Temperature: 5.0°C (41°F)
Dewpoint: -1.0°C (30°F) [RH = 65%]
Pressure (altimeter): 30.03 inches Hg (1017.0 mb)
Winds: from the SSE (150 degrees) at 18 MPH (16 knots; 8.2 m/s)
Visibility: 6 or more miles (10+ km)
Ceiling: ceiling and visibility are OK
Clouds: unknown
Weather: no significant weather observed at this time

METAR text: UUWW 181330Z 15007MPS CAVOK 05/M01 Q1017 R19/190045 NOSIG
Conditions at: UUWW (MOSCOW/VNUKOVO , RU) observed 1330 UTC 18 March 2019
Temperature: 5.0°C (41°F)
Dewpoint: -1.0°C (30°F) [RH = 65%]
Pressure (altimeter): 30.03 inches Hg (1017.0 mb)
Winds: from the SSE (150 degrees) at 16 MPH (14 knots; 7.2 m/s)
Visibility: 6 or more miles (10+ km)
Ceiling: ceiling and visibility are OK
Clouds: unknown
Weather: no significant weather observed at this time

METAR text: UUWW 181300Z 15008MPS CAVOK 05/M01 Q1018 R19/190045 NOSIG
Conditions at: UUWW (MOSCOW/VNUKOVO , RU) observed 1300 UTC 18 March 2019
Temperature: 5.0°C (41°F)
Dewpoint: -1.0°C (30°F) [RH = 65%]
Pressure (altimeter): 30.06 inches Hg (1018.0 mb)
Winds: from the SSE (150 degrees) at 18 MPH (16 knots; 8.2 m/s)
Visibility: 6 or more miles (10+ km)
Ceiling: ceiling and visibility are OK
Clouds: unknown
Weather: no significant weather observed at this time

METAR text: UUWW 181230Z 15007MPS CAVOK 05/M01 Q1018 R19/190045 NOSIG
Conditions at: UUWW (MOSCOW/VNUKOVO , RU) observed 1230 UTC 18 March 2019
Temperature: 5.0°C (41°F)
Dewpoint: -1.0°C (30°F) [RH = 65%]
Pressure (altimeter): 30.06 inches Hg (1018.0 mb)
Winds: from the SSE (150 degrees) at 16 MPH (14 knots; 7.2 m/s)
Visibility: 6 or more miles (10+ km)
Ceiling: ceiling and visibility are OK
Clouds: unknown
Weather: no significant weather observed at this time

METAR text: UUWW 181200Z 16008MPS 9999 SCT026 05/M01 Q1018 R19/190045 NOSIG
Conditions at: UUWW (MOSCOW/VNUKOVO , RU) observed 1200 UTC 18 March 2019
Temperature: 5.0°C (41°F)
Dewpoint: -1.0°C (30°F) [RH = 65%]
Pressure (altimeter): 30.06 inches Hg (1018.0 mb)
Winds: from the SSE (160 degrees) at 18 MPH (16 knots; 8.2 m/s)
Visibility: 6 or more miles (10+ km)
Ceiling: at least 12,000 feet AGL
Clouds: scattered clouds at 2600 feet AGL
Weather: no significant weather observed at this time

METAR text: UUWW 181130Z 15008MPS 9999 SCT026 05/M01 Q1018 R19/190040 NOSIG
Conditions at: UUWW (MOSCOW/VNUKOVO , RU) observed 1130 UTC 18 March 2019
Temperature: 5.0°C (41°F)
Dewpoint: -1.0°C (30°F) [RH = 65%]
Pressure (altimeter): 30.06 inches Hg (1018.0 mb)
Winds: from the SSE (150 degrees) at 18 MPH (16 knots; 8.2 m/s)
Visibility: 6 or more miles (10+ km)
Ceiling: at least 12,000 feet AGL
Clouds: scattered clouds at 2600 feet AGL
Weather: no significant weather observed at this time

METAR text: UUWW 181100Z 14007MPS 9999 SCT026 05/M01 Q1018 R19/190040 NOSIG
Conditions at: UUWW (MOSCOW/VNUKOVO , RU) observed 1100 UTC 18 March 2019
Temperature: 5.0°C (41°F)
Dewpoint: -1.0°C (30°F) [RH = 65%]
Pressure (altimeter): 30.06 inches Hg (1018.0 mb)
Winds: from the SE (140 degrees) at 16 MPH (14 knots; 7.2 m/s)
Visibility: 6 or more miles (10+ km)
Ceiling: at least 12,000 feet AGL
Clouds: scattered clouds at 2600 feet AGL
Weather: no significant weather observed at this time

METAR text: UUWW 181030Z 15008MPS 9999 SCT026 05/M01 Q1018 R19/190040 NOSIG
Conditions at: UUWW (MOSCOW/VNUKOVO , RU) observed 1030 UTC 18 March 2019
Temperature: 5.0°C (41°F)
Dewpoint: -1.0°C (30°F) [RH = 65%]
Pressure (altimeter): 30.06 inches Hg (1018.0 mb)
Winds: from the SSE (150 degrees) at 18 MPH (16 knots; 8.2 m/s)
Visibility: 6 or more miles (10+ km)
Ceiling: at least 12,000 feet AGL
Clouds: scattered clouds at 2600 feet AGL
Weather: no significant weather observed at this time

METAR text: UUWW 181000Z 17005MPS 130V200 9999 SCT026 05/M01 Q1018 R24/190050 NOSIG
Conditions at: UUWW (MOSCOW/VNUKOVO , RU) observed 1000 UTC 18 March 2019
Temperature: 5.0°C (41°F)
Dewpoint: -1.0°C (30°F) [RH = 65%]
Pressure (altimeter): 30.06 inches Hg (1018.0 mb)
Winds: from the S (170 degrees) at 12 MPH (10 knots; 5.1 m/s)
Visibility: 6 or more miles (10+ km)
Ceiling: at least 12,000 feet AGL
Clouds: scattered clouds at 2600 feet AGL
Weather: no significant weather observed at this time

METAR text: UUWW 180930Z 17005MPS 9999 SCT024 04/M01 Q1018 R24/190050 NOSIG
Conditions at: UUWW (MOSCOW/VNUKOVO , RU) observed 0930 UTC 18 March 2019
Temperature: 4.0°C (39°F)
Dewpoint: -1.0°C (30°F) [RH = 70%]
Pressure (altimeter): 30.06 inches Hg (1018.0 mb)
Winds: from the S (170 degrees) at 12 MPH (10 knots; 5.1 m/s)
Visibility: 6 or more miles (10+ km)
Ceiling: at least 12,000 feet AGL
Clouds: scattered clouds at 2400 feet AGL
Weather: no significant weather observed at this time

METAR text: UUWW 180900Z 17005MPS 9999 SCT023 04/M01 Q1018 R24/190050 NOSIG
Conditions at: UUWW (MOSCOW/VNUKOVO , RU) observed 0900 UTC 18 March 2019
Temperature: 4.0°C (39°F)
Dewpoint: -1.0°C (30°F) [RH = 70%]
Pressure (altimeter): 30.06 inches Hg (1018.0 mb)
Winds: from the S (170 degrees) at 12 MPH (10 knots; 5.1 m/s)
Visibility: 6 or more miles (10+ km)
Ceiling: at least 12,000 feet AGL
Clouds: scattered clouds at 2300 feet AGL
Weather: no significant weather observed at this time

METAR text: UUWW 180830Z 16005MPS 9999 SCT024 04/M02 Q1018 R24/190050 NOSIG
Conditions at: UUWW (MOSCOW/VNUKOVO , RU) observed 0830 UTC 18 March 2019
Temperature: 4.0°C (39°F)
Dewpoint: -2.0°C (28°F) [RH = 65%]
Pressure (altimeter): 30.06 inches Hg (1018.0 mb)
Winds: from the SSE (160 degrees) at 12 MPH (10 knots; 5.1 m/s)
Visibility: 6 or more miles (10+ km)
Ceiling: at least 12,000 feet AGL
Clouds: scattered clouds at 2400 feet AGL
Weather: no significant weather observed at this time

METAR text: UUWW 180800Z 14006MPS CAVOK 04/M01 Q1018 R19/190040 NOSIG
Conditions at: UUWW (MOSCOW/VNUKOVO , RU) observed 0800 UTC 18 March 2019
Temperature: 4.0°C (39°F)
Dewpoint: -1.0°C (30°F) [RH = 70%]
Pressure (altimeter): 30.06 inches Hg (1018.0 mb)
Winds: from the SE (140 degrees) at 14 MPH (12 knots; 6.2 m/s)
Visibility: 6 or more miles (10+ km)
Ceiling: ceiling and visibility are OK
Clouds: unknown
Weather: no significant weather observed at this time

METAR text: UUWW 180730Z 14006MPS 9999 FEW015 03/M01 Q1018 R19/190040 NOSIG
Conditions at: UUWW (MOSCOW/VNUKOVO , RU) observed 0730 UTC 18 March 2019
Temperature: 3.0°C (37°F)
Dewpoint: -1.0°C (30°F) [RH = 75%]
Pressure (altimeter): 30.06 inches Hg (1018.0 mb)
Winds: from the SE (140 degrees) at 14 MPH (12 knots; 6.2 m/s)
Visibility: 6 or more miles (10+ km)
Ceiling: at least 12,000 feet AGL
Clouds: few clouds at 1500 feet AGL
Weather: no significant weather observed at this time

METAR text: UUWW 180700Z 15006MPS 9000 SCT012 BKN040 02/M01 Q1018 R19/190045 NOSIG
Conditions at: UUWW (MOSCOW/VNUKOVO , RU) observed 0700 UTC 18 March 2019
Temperature: 2.0°C (36°F)
Dewpoint: -1.0°C (30°F) [RH = 80%]
Pressure (altimeter): 30.06 inches Hg (1018.0 mb)
Winds: from the SSE (150 degrees) at 14 MPH (12 knots; 6.2 m/s)
Visibility: 6 miles ( 9 km)
Ceiling: 4000 feet AGL
Clouds: scattered clouds at 1200 feet AGL
broken clouds at 4000 feet AGL
Weather: no significant weather observed at this time

METAR text: UUWW 180630Z 16004MPS 8000 SCT010 BKN040 02/M01 Q1018 R24/190050 NOSIG
Conditions at: UUWW (MOSCOW/VNUKOVO , RU) observed 0630 UTC 18 March 2019
Temperature: 2.0°C (36°F)
Dewpoint: -1.0°C (30°F) [RH = 80%]
Pressure (altimeter): 30.06 inches Hg (1018.0 mb)
Winds: from the SSE (160 degrees) at 9 MPH (8 knots; 4.1 m/s)
Visibility: 5 miles ( 8 km)
Ceiling: 4000 feet AGL
Clouds: scattered clouds at 1000 feet AGL
broken clouds at 4000 feet AGL
Weather: no significant weather observed at this time

METAR text: UUWW 180600Z 14004MPS 7000 SCT007 BKN040 02/M01 Q1018 R24/190050 NOSIG
Conditions at: UUWW (MOSCOW/VNUKOVO , RU) observed 0600 UTC 18 March 2019
Temperature: 2.0°C (36°F)
Dewpoint: -1.0°C (30°F) [RH = 80%]
Pressure (altimeter): 30.06 inches Hg (1018.0 mb)
Winds: from the SE (140 degrees) at 9 MPH (8 knots; 4.1 m/s)
Visibility: 4 miles ( 7 km)
Ceiling: 4000 feet AGL
Clouds: scattered clouds at 700 feet AGL
broken clouds at 4000 feet AGL
Weather: no significant weather observed at this time

METAR text: UUWW 180530Z 14004MPS 6000 SCT007 BKN038 01/M01 Q1017 R24/190050 NOSIG
Conditions at: UUWW (MOSCOW/VNUKOVO , RU) observed 0530 UTC 18 March 2019
Temperature: 1.0°C (34°F)
Dewpoint: -1.0°C (30°F) [RH = 86%]
Pressure (altimeter): 30.03 inches Hg (1017.0 mb)
Winds: from the SE (140 degrees) at 9 MPH (8 knots; 4.1 m/s)
Visibility: 4 miles ( 6 km)
Ceiling: 3800 feet AGL
Clouds: scattered clouds at 700 feet AGL
broken clouds at 3800 feet AGL
Weather: no significant weather observed at this time

METAR text: UUWW 180500Z 14003MPS 6000 SCT006 OVC038 01/M01 Q1017 R24/190050 NOSIG
Conditions at: UUWW (MOSCOW/VNUKOVO , RU) observed 0500 UTC 18 March 2019
Temperature: 1.0°C (34°F)
Dewpoint: -1.0°C (30°F) [RH = 86%]
Pressure (altimeter): 30.03 inches Hg (1017.0 mb)
Winds: from the SE (140 degrees) at 7 MPH (6 knots; 3.1 m/s)
Visibility: 4 miles ( 6 km)
Ceiling: 3800 feet AGL
Clouds: scattered clouds at 600 feet AGL
overcast cloud deck at 3800 feet AGL
Weather: no significant weather observed at this time

METAR text: UUWW 180430Z 14003MPS 5000 BR BKN006 OVC038 01/M01 Q1017 R24/190050 NOSIG
Conditions at: UUWW (MOSCOW/VNUKOVO , RU) observed 0430 UTC 18 March 2019
Temperature: 1.0°C (34°F)
Dewpoint: -1.0°C (30°F) [RH = 86%]
Pressure (altimeter): 30.03 inches Hg (1017.0 mb)
Winds: from the SE (140 degrees) at 7 MPH (6 knots; 3.1 m/s)
Visibility: 3 miles ( 5 km)
Ceiling: 600 feet AGL
Clouds: broken clouds at 600 feet AGL
overcast cloud deck at 3800 feet AGL
Weather: BR  (mist)

METAR text: UUWW 180400Z 17003MPS 4700 BR OVC006 01/M01 Q1017 R24/190050 NOSIG
Conditions at: UUWW (MOSCOW/VNUKOVO , RU) observed 0400 UTC 18 March 2019
Temperature: 1.0°C (34°F)
Dewpoint: -1.0°C (30°F) [RH = 86%]
Pressure (altimeter): 30.03 inches Hg (1017.0 mb)
Winds: from the S (170 degrees) at 7 MPH (6 knots; 3.1 m/s)
Visibility: 2.92 miles (4.70 km)
Ceiling: 600 feet AGL
Clouds: overcast cloud deck at 600 feet AGL
Weather: BR  (mist)

METAR text: UUWW 180330Z 17003MPS 4600 BR OVC005 01/M01 Q1017 R24/190050 NOSIG
Conditions at: UUWW (MOSCOW/VNUKOVO , RU) observed 0330 UTC 18 March 2019
Temperature: 1.0°C (34°F)
Dewpoint: -1.0°C (30°F) [RH = 86%]
Pressure (altimeter): 30.03 inches Hg (1017.0 mb)
Winds: from the S (170 degrees) at 7 MPH (6 knots; 3.1 m/s)
Visibility: 2.86 miles (4.60 km)
Ceiling: 500 feet AGL
Clouds: overcast cloud deck at 500 feet AGL
Weather: BR  (mist)

METAR text: UUWW 180300Z 17003MPS 4400 BR OVC006 01/M01 Q1017 R24/190050 NOSIG
Conditions at: UUWW (MOSCOW/VNUKOVO , RU) observed 0300 UTC 18 March 2019
Temperature: 1.0°C (34°F)
Dewpoint: -1.0°C (30°F) [RH = 86%]
Pressure (altimeter): 30.03 inches Hg (1017.0 mb)
Winds: from the S (170 degrees) at 7 MPH (6 knots; 3.1 m/s)
Visibility: 2.73 miles (4.39 km)
Ceiling: 600 feet AGL
Clouds: overcast cloud deck at 600 feet AGL
Weather: BR  (mist)

METAR text: UUWW 180230Z 16003MPS 4300 BR OVC006 01/M01 Q1017 R24/190050 NOSIG
Conditions at: UUWW (MOSCOW/VNUKOVO , RU) observed 0230 UTC 18 March 2019
Temperature: 1.0°C (34°F)
Dewpoint: -1.0°C (30°F) [RH = 86%]
Pressure (altimeter): 30.03 inches Hg (1017.0 mb)
Winds: from the SSE (160 degrees) at 7 MPH (6 knots; 3.1 m/s)
Visibility: 2.67 miles (4.30 km)
Ceiling: 600 feet AGL
Clouds: overcast cloud deck at 600 feet AGL
Weather: BR  (mist)

METAR text: UUWW 180200Z 18002MPS 4600 BR OVC005 01/M01 Q1017 R24/190050 NOSIG
Conditions at: UUWW (MOSCOW/VNUKOVO , RU) observed 0200 UTC 18 March 2019
Temperature: 1.0°C (34°F)
Dewpoint: -1.0°C (30°F) [RH = 86%]
Pressure (altimeter): 30.03 inches Hg (1017.0 mb)
Winds: from the S (180 degrees) at 5 MPH (4 knots; 2.1 m/s)
Visibility: 2.86 miles (4.60 km)
Ceiling: 500 feet AGL
Clouds: overcast cloud deck at 500 feet AGL
Weather: BR  (mist)

METAR text: UUWW 180130Z 16003MPS 4800 BR OVC006 01/M01 Q1017 R24/190050 NOSIG
Conditions at: UUWW (MOSCOW/VNUKOVO , RU) observed 0130 UTC 18 March 2019
Temperature: 1.0°C (34°F)
Dewpoint: -1.0°C (30°F) [RH = 86%]
Pressure (altimeter): 30.03 inches Hg (1017.0 mb)
Winds: from the SSE (160 degrees) at 7 MPH (6 knots; 3.1 m/s)
Visibility: 2.98 miles (4.80 km)
Ceiling: 600 feet AGL
Clouds: overcast cloud deck at 600 feet AGL
Weather: BR  (mist)

METAR text: UUWW 180100Z 16003MPS 4700 BR OVC006 01/M01 Q1016 R24/190050 NOSIG
Conditions at: UUWW (MOSCOW/VNUKOVO , RU) observed 0100 UTC 18 March 2019
Temperature: 1.0°C (34°F)
Dewpoint: -1.0°C (30°F) [RH = 86%]
Pressure (altimeter): 30.00 inches Hg (1016.0 mb)
Winds: from the SSE (160 degrees) at 7 MPH (6 knots; 3.1 m/s)
Visibility: 2.92 miles (4.70 km)
Ceiling: 600 feet AGL
Clouds: overcast cloud deck at 600 feet AGL
Weather: BR  (mist)

METAR text: UUWW 180030Z 16002MPS 4300 BR OVC006 01/M01 Q1016 R24/190050 TEMPO OVC005
Conditions at: UUWW (MOSCOW/VNUKOVO , RU) observed 0030 UTC 18 March 2019
Temperature: 1.0°C (34°F)
Dewpoint: -1.0°C (30°F) [RH = 86%]
Pressure (altimeter): 30.00 inches Hg (1016.0 mb)
Winds: from the SSE (160 degrees) at 5 MPH (4 knots; 2.1 m/s)
Visibility: 2.67 miles (4.30 km)
Ceiling: 600 feet AGL
Clouds: overcast cloud deck at 600 feet AGL
Weather: BR  (mist)

METAR text: UUWW 180000Z 17002MPS 4800 BR OVC006 01/M01 Q1016 R24/190050 TEMPO OVC005
Conditions at: UUWW (MOSCOW/VNUKOVO , RU) observed 0000 UTC 18 March 2019
Temperature: 1.0°C (34°F)
Dewpoint: -1.0°C (30°F) [RH = 86%]
Pressure (altimeter): 30.00 inches Hg (1016.0 mb)
Winds: from the S (170 degrees) at 5 MPH (4 knots; 2.1 m/s)
Visibility: 2.98 miles (4.80 km)
Ceiling: 600 feet AGL
Clouds: overcast cloud deck at 600 feet AGL
Weather: BR  (mist)

METAR text: UUWW 172330Z 17004MPS 4900 BR OVC006 01/M01 Q1016 R24/190050 NOSIG
Conditions at: UUWW (MOSCOW/VNUKOVO , RU) observed 2330 UTC 17 March 2019
Temperature: 1.0°C (34°F)
Dewpoint: -1.0°C (30°F) [RH = 86%]
Pressure (altimeter): 30.00 inches Hg (1016.0 mb)
Winds: from the S (170 degrees) at 9 MPH (8 knots; 4.1 m/s)
Visibility: 3 miles ( 5 km)
Ceiling: 600 feet AGL
Clouds: overcast cloud deck at 600 feet AGL
Weather: BR  (mist)

METAR text: UUWW 172300Z 17003MPS 130V210 5000 BR OVC006 01/M01 Q1016 R06/190050 NOSIG
Conditions at: UUWW (MOSCOW/VNUKOVO , RU) observed 2300 UTC 17 March 2019
Temperature: 1.0°C (34°F)
Dewpoint: -1.0°C (30°F) [RH = 86%]
Pressure (altimeter): 30.00 inches Hg (1016.0 mb)
Winds: from the S (170 degrees) at 7 MPH (6 knots; 3.1 m/s)
Visibility: 3 miles ( 5 km)
Ceiling: 600 feet AGL
Clouds: overcast cloud deck at 600 feet AGL
Weather: BR  (mist)

METAR text: UUWW 172230Z 17002MPS 4800 BR OVC007 01/M02 Q1016 R06/190050 NOSIG
Conditions at: UUWW (MOSCOW/VNUKOVO , RU) observed 2230 UTC 17 March 2019
Temperature: 1.0°C (34°F)
Dewpoint: -2.0°C (28°F) [RH = 80%]
Pressure (altimeter): 30.00 inches Hg (1016.0 mb)
Winds: from the S (170 degrees) at 5 MPH (4 knots; 2.1 m/s)
Visibility: 2.98 miles (4.80 km)
Ceiling: 700 feet AGL
Clouds: overcast cloud deck at 700 feet AGL
Weather: BR  (mist)

METAR text: UUWW 172200Z 15002MPS 4900 BR OVC007 01/M01 Q1015 R06/190050 NOSIG
Conditions at: UUWW (MOSCOW/VNUKOVO , RU) observed 2200 UTC 17 March 2019
Temperature: 1.0°C (34°F)
Dewpoint: -1.0°C (30°F) [RH = 86%]
Pressure (altimeter): 29.97 inches Hg (1015.0 mb)
Winds: from the SSE (150 degrees) at 5 MPH (4 knots; 2.1 m/s)
Visibility: 3 miles ( 5 km)
Ceiling: 700 feet AGL
Clouds: overcast cloud deck at 700 feet AGL
Weather: BR  (mist)

METAR text: UUWW 172130Z 16003MPS 5000 BR OVC007 01/M01 Q1015 R06/190050 NOSIG
Conditions at: UUWW (MOSCOW/VNUKOVO , RU) observed 2130 UTC 17 March 2019
Temperature: 1.0°C (34°F)
Dewpoint: -1.0°C (30°F) [RH = 86%]
Pressure (altimeter): 29.97 inches Hg (1015.0 mb)
Winds: from the SSE (160 degrees) at 7 MPH (6 knots; 3.1 m/s)
Visibility: 3 miles ( 5 km)
Ceiling: 700 feet AGL
Clouds: overcast cloud deck at 700 feet AGL
Weather: BR  (mist)

METAR text: UUWW 172100Z 14003MPS 6000 OVC008 01/M01 Q1015 R06/190050 NOSIG
Conditions at: UUWW (MOSCOW/VNUKOVO , RU) observed 2100 UTC 17 March 2019
Temperature: 1.0°C (34°F)
Dewpoint: -1.0°C (30°F) [RH = 86%]
Pressure (altimeter): 29.97 inches Hg (1015.0 mb)
Winds: from the SE (140 degrees) at 7 MPH (6 knots; 3.1 m/s)
Visibility: 4 miles ( 6 km)
Ceiling: 800 feet AGL
Clouds: overcast cloud deck at 800 feet AGL
Weather: no significant weather observed at this time

METAR text: UUWW 172030Z 14003MPS 7000 OVC009 00/M01 Q1015 R06/190050 NOSIG
Conditions at: UUWW (MOSCOW/VNUKOVO , RU) observed 2030 UTC 17 March 2019
Temperature: 0.0°C (32°F)
Dewpoint: -1.0°C (30°F) [RH = 93%]
Pressure (altimeter): 29.97 inches Hg (1015.0 mb)
Winds: from the SE (140 degrees) at 7 MPH (6 knots; 3.1 m/s)
Visibility: 4 miles ( 7 km)
Ceiling: 900 feet AGL
Clouds: overcast cloud deck at 900 feet AGL
Weather: no significant weather observed at this time

METAR text: UUWW 172000Z 13004MPS 7000 OVC010 00/M02 Q1015 R06/190050 NOSIG
Conditions at: UUWW (MOSCOW/VNUKOVO , RU) observed 2000 UTC 17 March 2019
Temperature: 0.0°C (32°F)
Dewpoint: -2.0°C (28°F) [RH = 86%]
Pressure (altimeter): 29.97 inches Hg (1015.0 mb)
Winds: from the SE (130 degrees) at 9 MPH (8 knots; 4.1 m/s)
Visibility: 4 miles ( 7 km)
Ceiling: 1000 feet AGL
Clouds: overcast cloud deck at 1000 feet AGL
Weather: no significant weather observed at this time

METAR text: UUWW 171930Z 13002MPS 8000 OVC011 M00/M02 Q1015 R06/190050 NOSIG
Conditions at: UUWW (MOSCOW/VNUKOVO , RU) observed 1930 UTC 17 March 2019
Temperature: 0.0°C (32°F)
Dewpoint: -2.0°C (28°F) [RH = 86%]
Pressure (altimeter): 29.97 inches Hg (1015.0 mb)
Winds: from the SE (130 degrees) at 5 MPH (4 knots; 2.1 m/s)
Visibility: 5 miles ( 8 km)
Ceiling: 1100 feet AGL
Clouds: overcast cloud deck at 1100 feet AGL
Weather: no significant weather observed at this time

METAR text: UUWW 171900Z 14002MPS 9000 SCT012 BKN046 M00/M04 Q1015 R06/190050 NOSIG
Conditions at: UUWW (MOSCOW/VNUKOVO , RU) observed 1900 UTC 17 March 2019
Temperature: 0.0°C (32°F)
Dewpoint: -4.0°C (25°F) [RH = 74%]
Pressure (altimeter): 29.97 inches Hg (1015.0 mb)
Winds: from the SE (140 degrees) at 5 MPH (4 knots; 2.1 m/s)
Visibility: 6 miles ( 9 km)
Ceiling: 4600 feet AGL
Clouds: scattered clouds at 1200 feet AGL
broken clouds at 4600 feet AGL
Weather: no significant weather observed at this time

METAR text: UUWW 171830Z 13002MPS 9999 BKN046 M00/M04 Q1015 R06/190050 NOSIG
Conditions at: UUWW (MOSCOW/VNUKOVO , RU) observed 1830 UTC 17 March 2019
Temperature: 0.0°C (32°F)
Dewpoint: -4.0°C (25°F) [RH = 74%]
Pressure (altimeter): 29.97 inches Hg (1015.0 mb)
Winds: from the SE (130 degrees) at 5 MPH (4 knots; 2.1 m/s)
Visibility: 6 or more miles (10+ km)
Ceiling: 4600 feet AGL
Clouds: broken clouds at 4600 feet AGL
Weather: no significant weather observed at this time

METAR text: UUWW 171800Z 13003MPS CAVOK M00/M04 Q1015 R06/190050 NOSIG
Conditions at: UUWW (MOSCOW/VNUKOVO , RU) observed 1800 UTC 17 March 2019
Temperature: 0.0°C (32°F)
Dewpoint: -4.0°C (25°F) [RH = 74%]
Pressure (altimeter): 29.97 inches Hg (1015.0 mb)
Winds: from the SE (130 degrees) at 7 MPH (6 knots; 3.1 m/s)
Visibility: 6 or more miles (10+ km)
Ceiling: ceiling and visibility are OK
Clouds: unknown
Weather: no significant weather observed at this time

Forecast for: UUWW (MOSCOW/VNUKOVO , RU)
Text: TAF UUWW 190459Z 1906/2006 15005MPS 8000 BKN011 TX04/1913Z TN01/2002Z
Forecast period: 0600 to 0800 UTC 19 March 2019
Forecast type: FROM: standard forecast or significant change
Winds: from the SSE (150 degrees) at 12 MPH (10 knots; 5.1 m/s)
Visibility: 5 miles (8 km)
Ceiling: 1100 feet AGL
Clouds: broken clouds at 1100 feet AGL
Weather: no significant weather forecast for this period
Text: TEMPO 1906/1915 2100 -SHRA BKN004 SCT015CB
Forecast period: 0600 to 1500 UTC 19 March 2019
Forecast type: TEMPORARY: The following changes expected for less than half the time period
Visibility: 1.30 miles (2.09 km)
Ceiling: 400 feet AGL
Clouds: broken clouds at 400 feet AGL
scattered clouds at 1500 feet AGL
Weather: -SHRA  (light rain showers)
Text: BECMG 1908/1910 22005MPS
Forecast period: 0800 UTC 19 March 2019 to 0600 UTC 20 March 2019
Forecast type: BECOMING: Conditions expected to become as follows by 1000 UTC 19 March 2019
Winds: from the SW (220 degrees) at 12 MPH (10 knots; 5.1 m/s)
Visibility: 5 miles (8 km)
Ceiling: 1100 feet AGL
Clouds: broken clouds at 1100 feet AGL
Weather: no significant weather forecast for this period
Text: TEMPO 1918/2006 3100 BR BKN006
Forecast period: 1800 UTC 19 March 2019 to 0600 UTC 20 March 2019
Forecast type: TEMPORARY: The following changes expected for less than half the time period
Visibility: 1.93 miles (3.11 km)
Ceiling: 600 feet AGL
Clouds: broken clouds at 600 feet AGL
Weather: BR  (mist)